sensor_id;sensor_type;location;lat;lon;timestamp;P1;durP1;ratioP1;P2;durP2;ratioP2
15449;SDS011;7826;49.784;9.934;2023-09-08T00:00:38;10.87;;;7.87;;
15449;SDS011;7826;49.784;9.934;2023-09-08T00:03:05;9.77;;;7.50;;
15449;SDS011;7826;49.784;9.934;2023-09-08T00:05:32;8.73;;;7.83;;
15449;SDS011;7826;49.784;9.934;2023-09-08T00:07:58;8.70;;;7.80;;
15449;SDS011;7826;49.784;9.934;2023-09-08T00:10:24;10.30;;;8.40;;
15449;SDS011;7826;49.784;9.934;2023-09-08T00:12:51;8.27;;;7.50;;
15449;SDS011;7826;49.784;9.934;2023-09-08T00:15:17;8.67;;;7.80;;
15449;SDS011;7826;49.784;9.934;2023-09-08T00:17:44;8.50;;;7.27;;
15449;SDS011;7826;49.784;9.934;2023-09-08T00:20:13;7.97;;;7.17;;
15449;SDS011;7826;49.784;9.934;2023-09-08T00:22:39;8.30;;;7.60;;
15449;SDS011;7826;49.784;9.934;2023-09-08T00:25:06;11.70;;;8.00;;
15449;SDS011;7826;49.784;9.934;2023-09-08T00:27:33;8.40;;;7.50;;
15449;SDS011;7826;49.784;9.934;2023-09-08T00:29:59;7.90;;;7.13;;
15449;SDS011;7826;49.784;9.934;2023-09-08T00:32:27;8.37;;;7.57;;
15449;SDS011;7826;49.784;9.934;2023-09-08T00:34:54;8.57;;;7.67;;
15449;SDS011;7826;49.784;9.934;2023-09-08T00:37:20;9.03;;;7.80;;
15449;SDS011;7826;49.784;9.934;2023-09-08T00:39:47;8.63;;;7.80;;
15449;SDS011;7826;49.784;9.934;2023-09-08T00:42:13;8.63;;;7.37;;
15449;SDS011;7826;49.784;9.934;2023-09-08T00:44:40;8.80;;;7.67;;
15449;SDS011;7826;49.784;9.934;2023-09-08T00:47:06;9.63;;;8.03;;
15449;SDS011;7826;49.784;9.934;2023-09-08T00:49:33;9.90;;;7.60;;
15449;SDS011;7826;49.784;9.934;2023-09-08T00:52:00;9.63;;;8.33;;
15449;SDS011;7826;49.784;9.934;2023-09-08T00:54:26;8.40;;;7.60;;
15449;SDS011;7826;49.784;9.934;2023-09-08T00:56:55;10.40;;;7.93;;
15449;SDS011;7826;49.784;9.934;2023-09-08T00:59:25;8.97;;;8.10;;
15449;SDS011;7826;49.784;9.934;2023-09-08T01:01:52;10.43;;;8.40;;
15449;SDS011;7826;49.784;9.934;2023-09-08T01:04:20;8.57;;;7.77;;
15449;SDS011;7826;49.784;9.934;2023-09-08T01:06:46;8.73;;;7.83;;
15449;SDS011;7826;49.784;9.934;2023-09-08T01:09:13;8.83;;;7.93;;
15449;SDS011;7826;49.784;9.934;2023-09-08T01:11:40;8.57;;;7.77;;
15449;SDS011;7826;49.784;9.934;2023-09-08T01:14:07;11.07;;;8.97;;
15449;SDS011;7826;49.784;9.934;2023-09-08T01:16:34;10.30;;;8.13;;
15449;SDS011;7826;49.784;9.934;2023-09-08T01:19:01;9.47;;;8.53;;
15449;SDS011;7826;49.784;9.934;2023-09-08T01:27:12;9.93;;;8.93;;
15449;SDS011;7826;49.784;9.934;2023-09-08T01:29:40;10.83;;;8.70;;
15449;SDS011;7826;49.784;9.934;2023-09-08T01:32:07;11.43;;;7.80;;
15449;SDS011;7826;49.784;9.934;2023-09-08T01:34:35;9.80;;;8.63;;
15449;SDS011;7826;49.784;9.934;2023-09-08T01:37:06;11.03;;;8.73;;
15449;SDS011;7826;49.784;9.934;2023-09-08T01:39:33;9.57;;;8.03;;
15449;SDS011;7826;49.784;9.934;2023-09-08T01:41:59;11.57;;;9.00;;
15449;SDS011;7826;49.784;9.934;2023-09-08T01:44:26;9.23;;;8.33;;
15449;SDS011;7826;49.784;9.934;2023-09-08T01:46:52;9.80;;;8.50;;
15449;SDS011;7826;49.784;9.934;2023-09-08T01:49:23;9.53;;;8.57;;
15449;SDS011;7826;49.784;9.934;2023-09-08T01:51:49;9.73;;;8.77;;
15449;SDS011;7826;49.784;9.934;2023-09-08T01:54:16;11.03;;;8.40;;
15449;SDS011;7826;49.784;9.934;2023-09-08T01:56:43;9.23;;;8.30;;
15449;SDS011;7826;49.784;9.934;2023-09-08T01:59:09;9.50;;;8.50;;
15449;SDS011;7826;49.784;9.934;2023-09-08T02:01:36;10.40;;;9.30;;
15449;SDS011;7826;49.784;9.934;2023-09-08T02:04:02;9.30;;;8.40;;
15449;SDS011;7826;49.784;9.934;2023-09-08T02:06:29;10.27;;;9.17;;
15449;SDS011;7826;49.784;9.934;2023-09-08T02:08:55;9.10;;;8.20;;
15449;SDS011;7826;49.784;9.934;2023-09-08T02:11:22;10.10;;;8.37;;
15449;SDS011;7826;49.784;9.934;2023-09-08T02:13:49;10.63;;;9.53;;
15449;SDS011;7826;49.784;9.934;2023-09-08T02:16:15;9.63;;;8.63;;
15449;SDS011;7826;49.784;9.934;2023-09-08T02:18:43;10.20;;;8.63;;
15449;SDS011;7826;49.784;9.934;2023-09-08T02:21:12;12.83;;;9.63;;
15449;SDS011;7826;49.784;9.934;2023-09-08T02:23:38;12.93;;;9.20;;
15449;SDS011;7826;49.784;9.934;2023-09-08T02:26:05;10.23;;;9.17;;
15449;SDS011;7826;49.784;9.934;2023-09-08T02:28:31;10.63;;;9.23;;
15449;SDS011;7826;49.784;9.934;2023-09-08T02:30:58;10.13;;;9.00;;
15449;SDS011;7826;49.784;9.934;2023-09-08T02:33:24;10.87;;;9.33;;
15449;SDS011;7826;49.784;9.934;2023-09-08T02:35:51;9.90;;;8.90;;
15449;SDS011;7826;49.784;9.934;2023-09-08T02:38:18;10.07;;;9.10;;
15449;SDS011;7826;49.784;9.934;2023-09-08T02:40:44;9.67;;;8.70;;
15449;SDS011;7826;49.784;9.934;2023-09-08T02:43:11;10.47;;;8.83;;
15449;SDS011;7826;49.784;9.934;2023-09-08T02:45:37;11.27;;;10.03;;
15449;SDS011;7826;49.784;9.934;2023-09-08T02:48:04;11.23;;;9.30;;
15449;SDS011;7826;49.784;9.934;2023-09-08T02:50:30;10.67;;;9.20;;
15449;SDS011;7826;49.784;9.934;2023-09-08T02:52:57;10.50;;;9.40;;
15449;SDS011;7826;49.784;9.934;2023-09-08T02:55:24;9.80;;;8.87;;
15449;SDS011;7826;49.784;9.934;2023-09-08T02:57:50;10.13;;;9.10;;
15449;SDS011;7826;49.784;9.934;2023-09-08T03:00:20;10.03;;;9.07;;
15449;SDS011;7826;49.784;9.934;2023-09-08T03:03:05;13.33;;;9.73;;
15449;SDS011;7826;49.784;9.934;2023-09-08T03:05:31;10.10;;;8.80;;
15449;SDS011;7826;49.784;9.934;2023-09-08T03:07:58;11.10;;;9.77;;
15449;SDS011;7826;49.784;9.934;2023-09-08T03:10:24;10.30;;;9.30;;
15449;SDS011;7826;49.784;9.934;2023-09-08T03:12:55;10.00;;;8.90;;
15449;SDS011;7826;49.784;9.934;2023-09-08T03:15:21;11.33;;;10.23;;
15449;SDS011;7826;49.784;9.934;2023-09-08T03:17:48;10.57;;;9.10;;
15449;SDS011;7826;49.784;9.934;2023-09-08T03:20:14;10.97;;;9.47;;
15449;SDS011;7826;49.784;9.934;2023-09-08T03:22:41;13.20;;;10.07;;
15449;SDS011;7826;49.784;9.934;2023-09-08T03:25:07;10.27;;;9.27;;
15449;SDS011;7826;49.784;9.934;2023-09-08T03:27:34;12.93;;;9.70;;
15449;SDS011;7826;49.784;9.934;2023-09-08T03:30:00;11.10;;;10.10;;
15449;SDS011;7826;49.784;9.934;2023-09-08T03:32:29;10.53;;;9.53;;
15449;SDS011;7826;49.784;9.934;2023-09-08T03:34:55;11.00;;;9.30;;
15449;SDS011;7826;49.784;9.934;2023-09-08T03:37:22;11.13;;;9.80;;
15449;SDS011;7826;49.784;9.934;2023-09-08T03:39:49;11.03;;;9.77;;
15449;SDS011;7826;49.784;9.934;2023-09-08T03:42:15;11.93;;;10.40;;
15449;SDS011;7826;49.784;9.934;2023-09-08T03:44:41;10.47;;;9.47;;
15449;SDS011;7826;49.784;9.934;2023-09-08T03:47:08;12.30;;;11.10;;
15449;SDS011;7826;49.784;9.934;2023-09-08T03:49:35;11.83;;;10.27;;
15449;SDS011;7826;49.784;9.934;2023-09-08T03:52:01;12.33;;;10.90;;
15449;SDS011;7826;49.784;9.934;2023-09-08T03:54:28;12.37;;;10.33;;
15449;SDS011;7826;49.784;9.934;2023-09-08T03:56:54;12.73;;;10.03;;
15449;SDS011;7826;49.784;9.934;2023-09-08T03:59:21;12.80;;;10.90;;
15449;SDS011;7826;49.784;9.934;2023-09-08T04:01:47;13.07;;;10.43;;
15449;SDS011;7826;49.784;9.934;2023-09-08T04:04:14;12.07;;;10.57;;
15449;SDS011;7826;49.784;9.934;2023-09-08T04:06:41;12.27;;;10.43;;
15449;SDS011;7826;49.784;9.934;2023-09-08T04:09:07;11.20;;;9.63;;
15449;SDS011;7826;49.784;9.934;2023-09-08T04:11:34;11.77;;;10.50;;
15449;SDS011;7826;49.784;9.934;2023-09-08T04:14:00;11.60;;;10.40;;
15449;SDS011;7826;49.784;9.934;2023-09-08T04:16:28;12.07;;;10.77;;
15449;SDS011;7826;49.784;9.934;2023-09-08T04:18:54;11.27;;;10.17;;
15449;SDS011;7826;49.784;9.934;2023-09-08T04:21:21;11.33;;;10.03;;
15449;SDS011;7826;49.784;9.934;2023-09-08T04:23:47;11.70;;;10.53;;
15449;SDS011;7826;49.784;9.934;2023-09-08T04:26:14;12.37;;;10.43;;
15449;SDS011;7826;49.784;9.934;2023-09-08T04:28:41;11.60;;;10.50;;
15449;SDS011;7826;49.784;9.934;2023-09-08T04:31:07;11.73;;;10.33;;
15449;SDS011;7826;49.784;9.934;2023-09-08T04:33:34;11.93;;;10.33;;
15449;SDS011;7826;49.784;9.934;2023-09-08T04:36:00;10.67;;;9.67;;
15449;SDS011;7826;49.784;9.934;2023-09-08T04:38:27;12.40;;;11.10;;
15449;SDS011;7826;49.784;9.934;2023-09-08T04:40:53;12.57;;;10.33;;
15449;SDS011;7826;49.784;9.934;2023-09-08T04:43:20;14.13;;;11.33;;
15449;SDS011;7826;49.784;9.934;2023-09-08T04:45:47;12.17;;;10.63;;
15449;SDS011;7826;49.784;9.934;2023-09-08T04:48:13;11.37;;;10.27;;
15449;SDS011;7826;49.784;9.934;2023-09-08T04:50:40;12.30;;;10.67;;
15449;SDS011;7826;49.784;9.934;2023-09-08T04:53:06;12.57;;;11.27;;
15449;SDS011;7826;49.784;9.934;2023-09-08T04:55:33;12.13;;;10.93;;
15449;SDS011;7826;49.784;9.934;2023-09-08T04:58:00;12.90;;;11.53;;
15449;SDS011;7826;49.784;9.934;2023-09-08T05:00:26;13.40;;;11.67;;
15449;SDS011;7826;49.784;9.934;2023-09-08T05:02:53;14.83;;;11.10;;
15449;SDS011;7826;49.784;9.934;2023-09-08T05:05:19;15.70;;;11.63;;
15449;SDS011;7826;49.784;9.934;2023-09-08T05:07:46;13.67;;;10.73;;
15449;SDS011;7826;49.784;9.934;2023-09-08T05:10:14;12.30;;;10.80;;
15449;SDS011;7826;49.784;9.934;2023-09-08T05:12:40;13.70;;;11.27;;
15449;SDS011;7826;49.784;9.934;2023-09-08T05:15:07;12.20;;;10.70;;
15449;SDS011;7826;49.784;9.934;2023-09-08T05:17:40;12.93;;;11.50;;
15449;SDS011;7826;49.784;9.934;2023-09-08T05:20:07;12.07;;;10.87;;
15449;SDS011;7826;49.784;9.934;2023-09-08T05:22:34;14.00;;;11.80;;
15449;SDS011;7826;49.784;9.934;2023-09-08T05:25:02;13.70;;;11.33;;
15449;SDS011;7826;49.784;9.934;2023-09-08T05:27:29;12.10;;;10.90;;
15449;SDS011;7826;49.784;9.934;2023-09-08T05:29:57;12.20;;;10.80;;
15449;SDS011;7826;49.784;9.934;2023-09-08T05:32:24;13.57;;;12.20;;
15449;SDS011;7826;49.784;9.934;2023-09-08T05:34:50;13.67;;;11.47;;
15449;SDS011;7826;49.784;9.934;2023-09-08T05:37:17;13.13;;;11.53;;
15449;SDS011;7826;49.784;9.934;2023-09-08T05:39:43;13.40;;;11.20;;
15449;SDS011;7826;49.784;9.934;2023-09-08T05:42:10;13.10;;;11.77;;
15449;SDS011;7826;49.784;9.934;2023-09-08T05:44:37;12.27;;;11.13;;
15449;SDS011;7826;49.784;9.934;2023-09-08T05:47:04;13.30;;;11.50;;
15449;SDS011;7826;49.784;9.934;2023-09-08T05:49:31;13.63;;;11.27;;
15449;SDS011;7826;49.784;9.934;2023-09-08T05:51:57;13.43;;;11.67;;
15449;SDS011;7826;49.784;9.934;2023-09-08T05:54:24;13.73;;;11.27;;
15449;SDS011;7826;49.784;9.934;2023-09-08T05:56:50;14.23;;;11.50;;
15449;SDS011;7826;49.784;9.934;2023-09-08T05:59:17;12.73;;;11.37;;
15449;SDS011;7826;49.784;9.934;2023-09-08T06:01:43;12.57;;;11.27;;
15449;SDS011;7826;49.784;9.934;2023-09-08T06:04:10;13.50;;;11.67;;
15449;SDS011;7826;49.784;9.934;2023-09-08T06:06:36;14.37;;;11.40;;
15449;SDS011;7826;49.784;9.934;2023-09-08T06:09:03;13.23;;;11.83;;
15449;SDS011;7826;49.784;9.934;2023-09-08T06:11:32;14.40;;;11.27;;
15449;SDS011;7826;49.784;9.934;2023-09-08T06:13:58;13.07;;;11.57;;
15449;SDS011;7826;49.784;9.934;2023-09-08T06:16:25;12.53;;;11.23;;
15449;SDS011;7826;49.784;9.934;2023-09-08T06:18:52;12.57;;;10.93;;
15449;SDS011;7826;49.784;9.934;2023-09-08T06:21:19;13.73;;;12.00;;
15449;SDS011;7826;49.784;9.934;2023-09-08T06:23:45;13.30;;;10.90;;
15449;SDS011;7826;49.784;9.934;2023-09-08T06:26:11;12.17;;;10.63;;
15449;SDS011;7826;49.784;9.934;2023-09-08T06:28:38;11.47;;;10.37;;
15449;SDS011;7826;49.784;9.934;2023-09-08T06:31:07;12.17;;;11.00;;
15449;SDS011;7826;49.784;9.934;2023-09-08T06:33:34;11.10;;;9.93;;
15449;SDS011;7826;49.784;9.934;2023-09-08T06:36:00;12.23;;;10.63;;
15449;SDS011;7826;49.784;9.934;2023-09-08T06:38:27;12.43;;;10.47;;
15449;SDS011;7826;49.784;9.934;2023-09-08T06:40:57;12.13;;;10.63;;
15449;SDS011;7826;49.784;9.934;2023-09-08T06:43:23;17.87;;;10.90;;
15449;SDS011;7826;49.784;9.934;2023-09-08T06:45:50;12.17;;;10.87;;
15449;SDS011;7826;49.784;9.934;2023-09-08T06:48:16;12.13;;;10.93;;
15449;SDS011;7826;49.784;9.934;2023-09-08T06:50:43;11.97;;;10.73;;
15449;SDS011;7826;49.784;9.934;2023-09-08T06:53:09;12.17;;;10.93;;
15449;SDS011;7826;49.784;9.934;2023-09-08T06:55:38;12.07;;;10.80;;
15449;SDS011;7826;49.784;9.934;2023-09-08T06:58:04;12.03;;;10.80;;
15449;SDS011;7826;49.784;9.934;2023-09-08T07:00:31;11.40;;;10.07;;
15449;SDS011;7826;49.784;9.934;2023-09-08T07:02:58;11.50;;;10.37;;
15449;SDS011;7826;49.784;9.934;2023-09-08T07:05:24;11.43;;;10.07;;
15449;SDS011;7826;49.784;9.934;2023-09-08T07:07:51;13.97;;;9.93;;
15449;SDS011;7826;49.784;9.934;2023-09-08T07:10:17;10.83;;;9.73;;
15449;SDS011;7826;49.784;9.934;2023-09-08T07:12:44;9.93;;;8.93;;
15449;SDS011;7826;49.784;9.934;2023-09-08T07:15:10;10.57;;;9.53;;
15449;SDS011;7826;49.784;9.934;2023-09-08T07:17:37;10.07;;;9.03;;
15449;SDS011;7826;49.784;9.934;2023-09-08T07:20:04;9.60;;;8.60;;
15449;SDS011;7826;49.784;9.934;2023-09-08T07:22:31;9.03;;;8.20;;
15449;SDS011;7826;49.784;9.934;2023-09-08T07:24:59;11.63;;;8.80;;
15449;SDS011;7826;49.784;9.934;2023-09-08T07:27:25;9.90;;;8.50;;
15449;SDS011;7826;49.784;9.934;2023-09-08T07:33:33;8.50;;;7.70;;
15449;SDS011;7826;49.784;9.934;2023-09-08T07:36:07;9.07;;;8.17;;
15449;SDS011;7826;49.784;9.934;2023-09-08T07:38:35;9.23;;;8.33;;
15449;SDS011;7826;49.784;9.934;2023-09-08T07:41:02;10.57;;;8.47;;
15449;SDS011;7826;49.784;9.934;2023-09-08T07:43:29;8.80;;;7.90;;
15449;SDS011;7826;49.784;9.934;2023-09-08T07:45:55;9.27;;;7.93;;
15449;SDS011;7826;49.784;9.934;2023-09-08T07:48:22;9.30;;;8.37;;
15449;SDS011;7826;49.784;9.934;2023-09-08T07:50:48;8.57;;;7.77;;
15449;SDS011;7826;49.784;9.934;2023-09-08T07:53:15;8.70;;;7.77;;
15449;SDS011;7826;49.784;9.934;2023-09-08T07:55:41;8.57;;;7.83;;
15449;SDS011;7826;49.784;9.934;2023-09-08T07:58:08;8.90;;;8.10;;
15449;SDS011;7826;49.784;9.934;2023-09-08T08:00:34;9.30;;;7.87;;
15449;SDS011;7826;49.784;9.934;2023-09-08T08:03:02;8.80;;;7.90;;
15449;SDS011;7826;49.784;9.934;2023-09-08T08:05:28;8.43;;;7.60;;
15449;SDS011;7826;49.784;9.934;2023-09-08T08:07:55;10.93;;;7.87;;
15449;SDS011;7826;49.784;9.934;2023-09-08T08:10:22;8.83;;;7.93;;
15449;SDS011;7826;49.784;9.934;2023-09-08T08:12:48;9.73;;;7.27;;
15449;SDS011;7826;49.784;9.934;2023-09-08T08:15:15;8.03;;;7.30;;
15449;SDS011;7826;49.784;9.934;2023-09-08T08:17:42;8.90;;;8.03;;
15449;SDS011;7826;49.784;9.934;2023-09-08T08:20:09;8.87;;;7.97;;
15449;SDS011;7826;49.784;9.934;2023-09-08T08:22:43;8.23;;;7.47;;
15449;SDS011;7826;49.784;9.934;2023-09-08T08:25:13;8.50;;;7.80;;
15449;SDS011;7826;49.784;9.934;2023-09-08T08:27:39;8.50;;;7.77;;
15449;SDS011;7826;49.784;9.934;2023-09-08T08:30:06;8.33;;;7.57;;
15449;SDS011;7826;49.784;9.934;2023-09-08T08:32:33;9.67;;;7.40;;
15449;SDS011;7826;49.784;9.934;2023-09-08T08:35:00;8.40;;;7.60;;
15449;SDS011;7826;49.784;9.934;2023-09-08T08:37:27;8.37;;;7.57;;
15449;SDS011;7826;49.784;9.934;2023-09-08T08:39:53;8.17;;;7.37;;
15449;SDS011;7826;49.784;9.934;2023-09-08T08:42:20;8.23;;;7.53;;
15449;SDS011;7826;49.784;9.934;2023-09-08T08:44:48;8.60;;;7.55;;
15449;SDS011;7826;49.784;9.934;2023-09-08T08:47:16;11.63;;;7.50;;
15449;SDS011;7826;49.784;9.934;2023-09-08T08:49:44;9.03;;;7.80;;
15449;SDS011;7826;49.784;9.934;2023-09-08T08:52:14;8.98;;;7.68;;
15449;SDS011;7826;49.784;9.934;2023-09-08T08:54:41;8.57;;;7.87;;
15449;SDS011;7826;49.784;9.934;2023-09-08T08:57:11;8.70;;;7.90;;
15449;SDS011;7826;49.784;9.934;2023-09-08T08:59:39;10.02;;;9.05;;
15449;SDS011;7826;49.784;9.934;2023-09-08T09:02:07;8.60;;;7.70;;
15449;SDS011;7826;49.784;9.934;2023-09-08T09:04:36;9.35;;;8.40;;
15449;SDS011;7826;49.784;9.934;2023-09-08T09:07:05;9.63;;;8.35;;
15449;SDS011;7826;49.784;9.934;2023-09-08T09:09:33;8.77;;;7.97;;
15449;SDS011;7826;49.784;9.934;2023-09-08T09:12:00;8.87;;;8.03;;
15449;SDS011;7826;49.784;9.934;2023-09-08T09:14:32;9.27;;;8.37;;
15449;SDS011;7826;49.784;9.934;2023-09-08T09:16:59;10.10;;;9.03;;
15449;SDS011;7826;49.784;9.934;2023-09-08T09:19:27;9.13;;;8.23;;
15449;SDS011;7826;49.784;9.934;2023-09-08T09:21:55;11.03;;;9.13;;
15449;SDS011;7826;49.784;9.934;2023-09-08T09:24:33;10.73;;;8.70;;
15449;SDS011;7826;49.784;9.934;2023-09-08T09:27:07;9.37;;;8.37;;
15449;SDS011;7826;49.784;9.934;2023-09-08T09:29:34;9.37;;;8.57;;
15449;SDS011;7826;49.784;9.934;2023-09-08T09:32:11;11.90;;;8.53;;
15449;SDS011;7826;49.784;9.934;2023-09-08T09:34:47;10.30;;;8.93;;
15449;SDS011;7826;49.784;9.934;2023-09-08T09:37:27;9.87;;;8.97;;
15449;SDS011;7826;49.784;9.934;2023-09-08T09:39:55;10.03;;;8.73;;
15449;SDS011;7826;49.784;9.934;2023-09-08T09:42:21;11.17;;;9.33;;
15449;SDS011;7826;49.784;9.934;2023-09-08T09:44:51;9.93;;;9.00;;
15449;SDS011;7826;49.784;9.934;2023-09-08T09:47:19;9.83;;;8.93;;
15449;SDS011;7826;49.784;9.934;2023-09-08T09:49:46;10.57;;;8.67;;
15449;SDS011;7826;49.784;9.934;2023-09-08T09:52:22;11.33;;;9.37;;
15449;SDS011;7826;49.784;9.934;2023-09-08T09:54:54;9.97;;;8.57;;
15449;SDS011;7826;49.784;9.934;2023-09-08T09:57:22;10.90;;;9.20;;
15449;SDS011;7826;49.784;9.934;2023-09-08T09:59:49;10.80;;;9.70;;
15449;SDS011;7826;49.784;9.934;2023-09-08T10:02:19;10.10;;;9.10;;
15449;SDS011;7826;49.784;9.934;2023-09-08T10:04:47;10.03;;;9.13;;
15449;SDS011;7826;49.784;9.934;2023-09-08T10:07:17;10.90;;;9.90;;
15449;SDS011;7826;49.784;9.934;2023-09-08T10:09:44;9.27;;;8.30;;
15449;SDS011;7826;49.784;9.934;2023-09-08T10:12:12;10.67;;;8.87;;
15449;SDS011;7826;49.784;9.934;2023-09-08T10:14:43;10.77;;;9.20;;
15449;SDS011;7826;49.784;9.934;2023-09-08T10:17:18;10.03;;;9.13;;
15449;SDS011;7826;49.784;9.934;2023-09-08T10:19:51;9.00;;;8.20;;
15449;SDS011;7826;49.784;9.934;2023-09-08T10:22:20;8.40;;;7.60;;
15449;SDS011;7826;49.784;9.934;2023-09-08T10:24:49;9.03;;;7.47;;
15449;SDS011;7826;49.784;9.934;2023-09-08T10:27:19;7.27;;;6.60;;
15449;SDS011;7826;49.784;9.934;2023-09-08T10:29:50;8.20;;;7.20;;
15449;SDS011;7826;49.784;9.934;2023-09-08T10:32:20;7.93;;;7.13;;
15449;SDS011;7826;49.784;9.934;2023-09-08T10:34:48;7.57;;;6.80;;
15449;SDS011;7826;49.784;9.934;2023-09-08T10:37:21;6.97;;;6.27;;
15449;SDS011;7826;49.784;9.934;2023-09-08T10:39:55;10.80;;;5.63;;
15449;SDS011;7826;49.784;9.934;2023-09-08T10:42:22;6.57;;;5.83;;
15449;SDS011;7826;49.784;9.934;2023-09-08T10:44:55;8.97;;;6.13;;
15449;SDS011;7826;49.784;9.934;2023-09-08T10:47:54;7.77;;;5.53;;
15449;SDS011;7826;49.784;9.934;2023-09-08T10:50:19;7.03;;;5.97;;
15449;SDS011;7826;49.784;9.934;2023-09-08T10:55:47;6.23;;;5.63;;
15449;SDS011;7826;49.784;9.934;2023-09-08T10:58:20;5.83;;;5.33;;
15449;SDS011;7826;49.784;9.934;2023-09-08T11:00:56;6.83;;;5.93;;
15449;SDS011;7826;49.784;9.934;2023-09-08T11:03:27;6.27;;;5.67;;
15449;SDS011;7826;49.784;9.934;2023-09-08T11:06:16;5.80;;;5.27;;
15449;SDS011;7826;49.784;9.934;2023-09-08T11:08:48;6.73;;;6.13;;
15449;SDS011;7826;49.784;9.934;2023-09-08T11:11:16;5.90;;;5.20;;
15449;SDS011;7826;49.784;9.934;2023-09-08T11:13:44;6.23;;;5.63;;
15449;SDS011;7826;49.784;9.934;2023-09-08T11:16:15;5.63;;;5.13;;
15449;SDS011;7826;49.784;9.934;2023-09-08T11:18:47;6.17;;;5.30;;
15449;SDS011;7826;49.784;9.934;2023-09-08T11:21:16;5.77;;;5.23;;
15449;SDS011;7826;49.784;9.934;2023-09-08T11:23:43;7.30;;;5.47;;
15449;SDS011;7826;49.784;9.934;2023-09-08T11:26:09;5.73;;;5.23;;
15449;SDS011;7826;49.784;9.934;2023-09-08T11:28:38;7.03;;;5.30;;
15449;SDS011;7826;49.784;9.934;2023-09-08T11:31:04;5.70;;;5.20;;
15449;SDS011;7826;49.784;9.934;2023-09-08T11:33:33;6.00;;;5.23;;
15449;SDS011;7826;49.784;9.934;2023-09-08T11:36:12;5.30;;;4.80;;
15449;SDS011;7826;49.784;9.934;2023-09-08T11:38:43;6.10;;;5.50;;
15449;SDS011;7826;49.784;9.934;2023-09-08T11:41:12;5.72;;;5.22;;
15449;SDS011;7826;49.784;9.934;2023-09-08T11:43:39;6.05;;;5.40;;
15449;SDS011;7826;49.784;9.934;2023-09-08T11:46:12;5.40;;;5.00;;
15449;SDS011;7826;49.784;9.934;2023-09-08T11:48:40;5.40;;;4.90;;
15449;SDS011;7826;49.784;9.934;2023-09-08T11:51:07;5.50;;;5.00;;
15449;SDS011;7826;49.784;9.934;2023-09-08T11:53:34;7.60;;;5.75;;
15449;SDS011;7826;49.784;9.934;2023-09-08T11:56:03;5.95;;;4.90;;
15449;SDS011;7826;49.784;9.934;2023-09-08T11:58:32;6.43;;;5.07;;
15449;SDS011;7826;49.784;9.934;2023-09-08T12:00:59;6.18;;;5.68;;
15449;SDS011;7826;49.784;9.934;2023-09-08T12:03:26;6.35;;;5.70;;
15449;SDS011;7826;49.784;9.934;2023-09-08T12:05:52;5.80;;;5.30;;
15449;SDS011;7826;49.784;9.934;2023-09-08T12:08:20;5.97;;;5.10;;
15449;SDS011;7826;49.784;9.934;2023-09-08T12:10:53;5.40;;;4.90;;
15449;SDS011;7826;49.784;9.934;2023-09-08T12:13:20;5.28;;;4.78;;
15449;SDS011;7826;49.784;9.934;2023-09-08T12:15:48;5.25;;;4.80;;
15449;SDS011;7826;49.784;9.934;2023-09-08T12:18:14;5.28;;;4.78;;
15449;SDS011;7826;49.784;9.934;2023-09-08T12:20:41;5.30;;;4.80;;
15449;SDS011;7826;49.784;9.934;2023-09-08T12:23:17;5.63;;;4.93;;
15449;SDS011;7826;49.784;9.934;2023-09-08T12:25:45;5.68;;;5.20;;
15449;SDS011;7826;49.784;9.934;2023-09-08T12:28:21;6.13;;;5.00;;
15449;SDS011;7826;49.784;9.934;2023-09-08T12:30:49;5.53;;;4.60;;
15449;SDS011;7826;49.784;9.934;2023-09-08T12:33:15;5.97;;;5.20;;
15449;SDS011;7826;49.784;9.934;2023-09-08T12:35:46;5.30;;;4.82;;
15449;SDS011;7826;49.784;9.934;2023-09-08T12:38:18;5.60;;;5.10;;
15449;SDS011;7826;49.784;9.934;2023-09-08T12:40:45;7.47;;;4.90;;
15449;SDS011;7826;49.784;9.934;2023-09-08T12:43:19;5.55;;;5.13;;
15449;SDS011;7826;49.784;9.934;2023-09-08T12:45:48;5.68;;;5.18;;
15449;SDS011;7826;49.784;9.934;2023-09-08T12:48:15;5.63;;;4.95;;
15449;SDS011;7826;49.784;9.934;2023-09-08T12:50:41;5.38;;;4.82;;
15449;SDS011;7826;49.784;9.934;2023-09-08T12:53:08;5.43;;;4.93;;
15449;SDS011;7826;49.784;9.934;2023-09-08T12:55:35;5.82;;;5.32;;
15449;SDS011;7826;49.784;9.934;2023-09-08T12:58:02;6.18;;;5.05;;
15449;SDS011;7826;49.784;9.934;2023-09-08T13:00:29;5.10;;;4.70;;
15449;SDS011;7826;49.784;9.934;2023-09-08T13:02:56;5.68;;;5.18;;
15449;SDS011;7826;49.784;9.934;2023-09-08T13:05:22;5.40;;;4.95;;
15449;SDS011;7826;49.784;9.934;2023-09-08T13:07:49;5.57;;;5.07;;
15449;SDS011;7826;49.784;9.934;2023-09-08T13:10:16;5.88;;;5.05;;
15449;SDS011;7826;49.784;9.934;2023-09-08T13:12:45;5.60;;;5.05;;
15449;SDS011;7826;49.784;9.934;2023-09-08T13:15:14;5.10;;;4.70;;
15449;SDS011;7826;49.784;9.934;2023-09-08T13:17:41;5.35;;;4.85;;
15449;SDS011;7826;49.784;9.934;2023-09-08T13:20:07;5.13;;;4.72;;
15449;SDS011;7826;49.784;9.934;2023-09-08T13:22:34;5.82;;;5.32;;
15449;SDS011;7826;49.784;9.934;2023-09-08T13:25:04;5.47;;;5.00;;
15449;SDS011;7826;49.784;9.934;2023-09-08T13:27:31;6.20;;;5.35;;
15449;SDS011;7826;49.784;9.934;2023-09-08T13:30:07;5.33;;;4.93;;
15449;SDS011;7826;49.784;9.934;2023-09-08T13:32:38;7.67;;;5.47;;
15449;SDS011;7826;49.784;9.934;2023-09-08T13:35:05;6.27;;;5.20;;
15449;SDS011;7826;49.784;9.934;2023-09-08T13:37:32;6.18;;;5.40;;
15449;SDS011;7826;49.784;9.934;2023-09-08T13:40:04;5.75;;;5.25;;
15449;SDS011;7826;49.784;9.934;2023-09-08T13:42:31;6.57;;;5.15;;
15449;SDS011;7826;49.784;9.934;2023-09-08T13:44:57;5.82;;;5.32;;
15449;SDS011;7826;49.784;9.934;2023-09-08T13:47:24;5.83;;;5.23;;
15449;SDS011;7826;49.784;9.934;2023-09-08T13:49:50;5.82;;;5.32;;
15449;SDS011;7826;49.784;9.934;2023-09-08T13:52:17;5.60;;;5.10;;
15449;SDS011;7826;49.784;9.934;2023-09-08T13:54:43;6.13;;;5.27;;
15449;SDS011;7826;49.784;9.934;2023-09-08T13:57:10;6.13;;;5.53;;
15449;SDS011;7826;49.784;9.934;2023-09-08T13:59:36;5.67;;;5.17;;
15449;SDS011;7826;49.784;9.934;2023-09-08T14:02:03;5.60;;;5.10;;
15449;SDS011;7826;49.784;9.934;2023-09-08T14:04:30;5.63;;;5.13;;
15449;SDS011;7826;49.784;9.934;2023-09-08T14:06:56;8.82;;;5.57;;
15449;SDS011;7826;49.784;9.934;2023-09-08T14:09:23;6.20;;;5.60;;
15449;SDS011;7826;49.784;9.934;2023-09-08T14:11:49;5.67;;;5.17;;
15449;SDS011;7826;49.784;9.934;2023-09-08T14:14:16;5.10;;;4.63;;
15449;SDS011;7826;49.784;9.934;2023-09-08T14:16:42;6.10;;;5.10;;
15449;SDS011;7826;49.784;9.934;2023-09-08T14:19:09;5.47;;;4.97;;
15449;SDS011;7826;49.784;9.934;2023-09-08T14:21:36;5.90;;;5.30;;
15449;SDS011;7826;49.784;9.934;2023-09-08T14:24:05;5.93;;;5.13;;
15449;SDS011;7826;49.784;9.934;2023-09-08T14:26:32;6.00;;;5.47;;
15449;SDS011;7826;49.784;9.934;2023-09-08T14:28:58;5.80;;;5.30;;
15449;SDS011;7826;49.784;9.934;2023-09-08T14:31:25;6.63;;;5.03;;
15449;SDS011;7826;49.784;9.934;2023-09-08T14:33:52;6.47;;;5.20;;
15449;SDS011;7826;49.784;9.934;2023-09-08T14:36:18;5.37;;;4.93;;
15449;SDS011;7826;49.784;9.934;2023-09-08T14:38:45;6.13;;;5.53;;
15449;SDS011;7826;49.784;9.934;2023-09-08T14:41:12;5.90;;;5.40;;
15449;SDS011;7826;49.784;9.934;2023-09-08T14:43:40;5.50;;;5.10;;
15449;SDS011;7826;49.784;9.934;2023-09-08T14:46:15;5.70;;;5.20;;
15449;SDS011;7826;49.784;9.934;2023-09-08T14:48:42;8.37;;;5.47;;
15449;SDS011;7826;49.784;9.934;2023-09-08T14:51:09;5.83;;;5.10;;
15449;SDS011;7826;49.784;9.934;2023-09-08T14:53:36;5.73;;;5.20;;
15449;SDS011;7826;49.784;9.934;2023-09-08T14:56:02;6.87;;;5.27;;
15449;SDS011;7826;49.784;9.934;2023-09-08T14:58:31;6.53;;;5.27;;
15449;SDS011;7826;49.784;9.934;2023-09-08T15:01:06;6.00;;;5.50;;
15449;SDS011;7826;49.784;9.934;2023-09-08T15:03:37;6.90;;;6.30;;
15449;SDS011;7826;49.784;9.934;2023-09-08T15:06:03;11.73;;;10.43;;
15449;SDS011;7826;49.784;9.934;2023-09-08T15:08:33;10.90;;;9.80;;